4XHLI LLEV-LLIB

Flight info

Callsign 4XHLI
Flight time N/A
Altitude 1200
Route CVFR
Aircraft FDCT/L-VGD/A

Departure

Time N/A
Airport LLEV

Arrival

Time 2026-05-01 12:00
Airport Rosh Pina Airport (LLIB)
Time Latitude Longitude Altitude Speed Heading
2026-05-01 11:09 32.26357 34.95006 187 ft 0 kts 41°
2026-05-01 11:11 32.26358 34.95007 186 ft 0 kts 39°
2026-05-01 11:11 32.26370 34.95030 183 ft 9 kts 66°
2026-05-01 11:12 32.26379 34.95089 179 ft 8 kts 39°
2026-05-01 11:12 32.26467 34.95153 178 ft 19 kts 30°
2026-05-01 11:12 32.26570 34.95224 180 ft 9 kts 32°
2026-05-01 11:12 32.26613 34.95251 182 ft 4 kts 14°
2026-05-01 11:13 32.26616 34.95252 182 ft 0 kts 350°
2026-05-01 11:13 32.26614 34.95250 182 ft 2 kts 178°
2026-05-01 11:13 32.26449 34.95145 180 ft 53 kts 205°
2026-05-01 11:14 32.26042 34.95112 309 ft 69 kts 146°
2026-05-01 11:14 32.25914 34.95595 375 ft 73 kts 66°
2026-05-01 11:14 32.26315 34.96026 310 ft 84 kts 30°
2026-05-01 11:14 32.26838 34.96299 297 ft 82 kts 12°
2026-05-01 11:15 32.27370 34.96433 325 ft 81 kts
2026-05-01 11:15 32.27903 34.96429 390 ft 75 kts 347°
2026-05-01 11:15 32.28433 34.96278 333 ft 84 kts 338°
2026-05-01 11:15 32.28984 34.96109 344 ft 77 kts 357°
2026-05-01 11:16 32.29577 34.96038 240 ft 87 kts 349°
2026-05-01 11:16 32.30158 34.95931 257 ft 80 kts 350°
2026-05-01 11:16 32.30715 34.95842 216 ft 86 kts 351°
2026-05-01 11:16 32.31301 34.95800 202 ft 84 kts
2026-05-01 11:17 32.31889 34.95828 173 ft 83 kts
2026-05-01 11:17 32.32456 34.95820 189 ft 82 kts 355°
2026-05-01 11:17 32.33018 34.95786 212 ft 81 kts
2026-05-01 11:17 32.33577 34.95869 223 ft 80 kts
2026-05-01 11:18 32.34121 34.96063 215 ft 83 kts 24°
2026-05-01 11:18 32.34642 34.96359 216 ft 82 kts 26°
2026-05-01 11:18 32.35155 34.96671 217 ft 83 kts 26°
2026-05-01 11:18 32.35664 34.96990 222 ft 83 kts 29°
2026-05-01 11:19 32.36131 34.97316 314 ft 75 kts 33°
2026-05-01 11:19 32.36530 34.97637 468 ft 67 kts 32°
2026-05-01 11:19 32.36864 34.97893 692 ft 47 kts 23°
2026-05-01 11:19 32.37208 34.98169 812 ft 68 kts 46°
2026-05-01 11:20 32.37511 34.98613 1077 ft 72 kts 49°
2026-05-01 11:20 32.37808 34.99051 1313 ft 71 kts 50°
2026-05-01 11:20 32.38135 34.99491 1566 ft 72 kts 45°
2026-05-01 11:20 32.38477 34.99970 1797 ft 83 kts 58°
2026-05-01 11:21 32.38800 35.00574 1900 ft 92 kts 54°
2026-05-01 11:21 32.39193 35.01218 1815 ft 100 kts 54°
2026-05-01 11:21 32.39697 35.01764 1779 ft 94 kts 26°
2026-05-01 11:21 32.40278 35.01994 1938 ft 89 kts 16°
2026-05-01 11:22 32.40869 35.02213 2051 ft 90 kts 14°
2026-05-01 11:22 32.41485 35.02382 2129 ft 91 kts 12°
2026-05-01 11:22 32.42091 35.02549 2101 ft 93 kts 12°
2026-05-01 11:22 32.42729 35.02754 1996 ft 95 kts 14°
2026-05-01 11:23 32.43353 35.02950 1955 ft 91 kts 11°
2026-05-01 11:23 32.43979 35.03101 1808 ft 94 kts 11°
2026-05-01 11:23 32.44402 35.03244 1760 ft 94 kts 17°
2026-05-01 11:23 32.45237 35.03568 1507 ft 99 kts 18°
2026-05-01 11:24 32.45679 35.03744 1355 ft 100 kts 16°
2026-05-01 11:24 32.46357 35.03955 1137 ft 104 kts
2026-05-01 11:24 32.47752 35.04058 724 ft 97 kts
2026-05-01 11:25 32.48398 35.04291 558 ft 97 kts 29°
2026-05-01 11:25 32.49300 35.05356 406 ft 93 kts 59°
2026-05-01 11:25 32.49590 35.05959 511 ft 78 kts 63°
2026-05-01 11:26 32.49844 35.06501 588 ft 77 kts 58°
2026-05-01 11:26 32.50299 35.07713 590 ft 83 kts 81°
2026-05-01 11:26 32.50390 35.08352 680 ft 78 kts 80°
2026-05-01 11:27 32.50503 35.08980 710 ft 84 kts 78°
2026-05-01 11:27 32.50642 35.09652 740 ft 82 kts 77°
2026-05-01 11:27 32.50779 35.10306 771 ft 82 kts 75°
2026-05-01 11:27 32.51026 35.10819 967 ft 67 kts 43°
2026-05-01 11:28 32.51406 35.11187 1121 ft 79 kts 36°
2026-05-01 11:28 32.51871 35.11624 1185 ft 88 kts 36°
2026-05-01 11:28 32.52363 35.12012 1346 ft 86 kts 37°
2026-05-01 11:29 32.53307 35.12963 1485 ft 88 kts 47°
2026-05-01 11:29 32.53715 35.13524 1537 ft 93 kts 50°
2026-05-01 11:29 32.54490 35.14783 1471 ft 92 kts 63°
2026-05-01 11:30 32.54871 35.15410 1466 ft 78 kts 47°
2026-05-01 11:30 32.55262 35.15985 1334 ft 101 kts 56°
2026-05-01 11:30 32.55701 35.16595 1288 ft 100 kts 51°
2026-05-01 11:30 32.56139 35.17256 1090 ft 105 kts 53°
2026-05-01 11:31 32.56473 35.17936 1200 ft 78 kts 63°
2026-05-01 11:31 32.56786 35.18426 1439 ft 81 kts 46°
2026-05-01 11:31 32.57092 35.18975 1662 ft 78 kts 79°
2026-05-01 11:31 32.57056 35.19642 1794 ft 86 kts 96°
2026-05-01 11:32 32.57043 35.20343 1978 ft 87 kts 90°
2026-05-01 11:32 32.57075 35.21087 2041 ft 95 kts 87°
2026-05-01 11:32 32.57149 35.21880 1973 ft 94 kts 82°
2026-05-01 11:32 32.57302 35.22625 2027 ft 95 kts 74°
2026-05-01 11:33 32.57494 35.23391 1948 ft 100 kts 77°
2026-05-01 11:33 32.57715 35.24189 1760 ft 106 kts 63°
2026-05-01 11:33 32.58037 35.24948 1699 ft 98 kts 65°
2026-05-01 11:33 32.58294 35.25630 1905 ft 84 kts 68°
2026-05-01 11:34 32.58542 35.26262 2026 ft 91 kts 64°
2026-05-01 11:34 32.58800 35.26961 2066 ft 94 kts 74°
2026-05-01 11:34 32.58985 35.27719 2056 ft 96 kts 76°
2026-05-01 11:34 32.59142 35.28490 2081 ft 95 kts 75°
2026-05-01 11:35 32.59338 35.29252 2043 ft 99 kts 75°
2026-05-01 11:35 32.59533 35.30035 1946 ft 99 kts 71°
2026-05-01 11:35 32.59882 35.30724 1916 ft 97 kts 50°
2026-05-01 11:35 32.60349 35.31311 1908 ft 98 kts 45°
2026-05-01 11:36 32.60822 35.31895 1870 ft 98 kts 48°
2026-05-01 11:36 32.61251 35.32526 1808 ft 99 kts 48°
2026-05-01 11:36 32.61841 35.32927 1763 ft 94 kts 20°
2026-05-01 11:36 32.62416 35.33275 1818 ft 95 kts 30°
2026-05-01 11:37 32.62963 35.33728 1816 ft 95 kts 38°
2026-05-01 11:37 32.63483 35.34204 1864 ft 94 kts 36°
2026-05-01 11:37 32.64006 35.34673 1902 ft 95 kts 40°
2026-05-01 11:37 32.64474 35.35237 1909 ft 96 kts 51°
2026-05-01 11:38 32.64867 35.35874 1930 ft 95 kts 57°
2026-05-01 11:38 32.65209 35.36543 1936 ft 94 kts 64°
2026-05-01 11:38 32.65464 35.37249 1925 ft 94 kts 67°
2026-05-01 11:38 32.65735 35.37940 1996 ft 90 kts 67°
2026-05-01 11:39 32.65973 35.38631 2062 ft 91 kts 64°
2026-05-01 11:39 32.66303 35.39296 2061 ft 95 kts 57°
2026-05-01 11:39 32.66675 35.39968 2030 ft 99 kts 57°
2026-05-01 11:39 32.67075 35.40636 1981 ft 99 kts 53°
2026-05-01 11:40 32.67513 35.41245 2001 ft 95 kts 45°
2026-05-01 11:40 32.68010 35.41762 2001 ft 96 kts 37°
2026-05-01 11:40 32.68556 35.42158 2132 ft 90 kts 27°
2026-05-01 11:40 32.69118 35.42592 2082 ft 98 kts 35°
2026-05-01 11:41 32.69668 35.43070 2028 ft 99 kts 37°
2026-05-01 11:41 32.70237 35.43570 1895 ft 102 kts 33°
2026-05-01 11:41 32.70814 35.43999 1903 ft 96 kts 31°
2026-05-01 11:41 32.71389 35.44387 1943 ft 94 kts 29°
2026-05-01 11:42 32.71714 35.45007 1992 ft 94 kts 82°
2026-05-01 11:42 32.71809 35.45789 1973 ft 96 kts 84°
2026-05-01 11:42 32.71877 35.46558 2004 ft 93 kts 90°
2026-05-01 11:42 32.71846 35.47330 2003 ft 94 kts 98°
2026-05-01 11:43 32.71767 35.48104 1993 ft 95 kts 99°
2026-05-01 11:43 32.71692 35.48881 1958 ft 94 kts 97°
2026-05-01 11:43 32.71629 35.49651 1972 ft 93 kts 97°
2026-05-01 11:44 32.71505 35.51175 1977 ft 93 kts 97°
2026-05-01 11:44 32.71441 35.51937 2001 ft 91 kts 97°
2026-05-01 11:44 32.71361 35.52668 2085 ft 90 kts 99°
2026-05-01 11:44 32.71342 35.53440 2056 ft 98 kts 88°
2026-05-01 11:45 32.71405 35.54256 1937 ft 100 kts 84°
2026-05-01 11:45 32.71527 35.55072 1837 ft 102 kts 80°
2026-05-01 11:45 32.71736 35.55917 1354 ft 115 kts 66°
2026-05-01 11:45 32.72259 35.56645 839 ft 109 kts 32°
2026-05-01 11:46 32.72922 35.56896 833 ft 97 kts
2026-05-01 11:46 32.73577 35.56866 829 ft 95 kts 347°
2026-05-01 11:46 32.74219 35.56691 810 ft 94 kts 342°
2026-05-01 11:46 32.74832 35.56497 911 ft 90 kts 347°
2026-05-01 11:47 32.75478 35.56293 713 ft 94 kts 330°
2026-05-01 11:47 32.75968 35.55830 693 ft 87 kts 311°
2026-05-01 11:47 32.76370 35.55272 661 ft 90 kts 310°
2026-05-01 11:47 32.76817 35.54826 782 ft 87 kts 330°
2026-05-01 11:48 32.77364 35.54525 805 ft 89 kts 335°
2026-05-01 11:48 32.77962 35.54296 795 ft 91 kts 343°
2026-05-01 11:48 32.78583 35.54131 848 ft 90 kts 347°
2026-05-01 11:48 32.79221 35.53983 854 ft 98 kts 342°
2026-05-01 11:49 32.79830 35.53650 837 ft 94 kts 333°
2026-05-01 11:49 32.80466 35.53563 905 ft 92 kts 356°
2026-05-01 11:49 32.81088 35.53486 1010 ft 86 kts 352°
2026-05-01 11:49 32.81673 35.53421 1171 ft 84 kts 356°
2026-05-01 11:50 32.82269 35.53443 1280 ft 86 kts
2026-05-01 11:50 32.82855 35.53638 1380 ft 88 kts 25°
2026-05-01 11:50 32.83379 35.54000 1519 ft 87 kts 33°
2026-05-01 11:50 32.83870 35.54430 1630 ft 88 kts 38°
2026-05-01 11:51 32.84352 35.54857 1741 ft 88 kts 30°
2026-05-01 11:51 32.84923 35.55150 1830 ft 90 kts 11°
2026-05-01 11:51 32.85557 35.55183 1851 ft 92 kts 352°
2026-05-01 11:51 32.86192 35.55066 1859 ft 94 kts 348°
2026-05-01 11:52 32.86832 35.54919 1861 ft 93 kts 347°
2026-05-01 11:52 32.87448 35.54699 1895 ft 90 kts 333°
2026-05-01 11:52 32.88013 35.54371 1940 ft 93 kts 344°
2026-05-01 11:52 32.88630 35.54571 1911 ft 98 kts 45°
2026-05-01 11:53 32.88806 35.55310 1887 ft 96 kts 107°
2026-05-01 11:53 32.88370 35.55841 1881 ft 90 kts 165°
2026-05-01 11:53 32.87785 35.55809 1953 ft 83 kts 204°
2026-05-01 11:53 32.87483 35.55230 1929 ft 93 kts 269°
2026-05-01 11:54 32.87761 35.54569 1963 ft 92 kts 319°
2026-05-01 11:54 32.88379 35.54384 1946 ft 98 kts
2026-05-01 11:54 32.88790 35.54607 1891 ft 100 kts 39°
2026-05-01 11:54 32.89147 35.55590 1788 ft 99 kts 99°
2026-05-01 11:55 32.88845 35.56278 1790 ft 93 kts 141°
2026-05-01 11:55 32.88262 35.56525 1764 ft 89 kts 184°
2026-05-01 11:55 32.87707 35.56251 1752 ft 91 kts 225°
2026-05-01 11:55 32.87521 35.55570 1810 ft 87 kts 279°
2026-05-01 11:56 32.87913 35.55026 1863 ft 92 kts 336°
2026-05-01 11:56 32.88564 35.55039 1845 ft 98 kts 22°
2026-05-01 11:56 32.88986 35.55666 1761 ft 101 kts 84°
2026-05-01 11:56 32.88688 35.56334 1615 ft 97 kts 156°
2026-05-01 11:57 32.88073 35.56272 1630 ft 85 kts 219°
2026-05-01 11:57 32.87992 35.55821 1498 ft 97 kts 291°
2026-05-01 11:57 32.88688 35.55322 1675 ft 83 kts 345°
2026-05-01 11:57 32.89262 35.55210 1856 ft 85 kts 349°
2026-05-01 11:58 32.89848 35.55084 2003 ft 85 kts 347°
2026-05-01 11:58 32.90437 35.54993 2140 ft 86 kts 355°
2026-05-01 11:58 32.91674 35.55252 2160 ft 97 kts 15°
2026-05-01 11:59 32.92346 35.55451 2078 ft 99 kts 12°
2026-05-01 11:59 32.93012 35.55613 2014 ft 98 kts
2026-05-01 11:59 32.93452 35.55718 1995 ft 97 kts 11°
2026-05-01 12:00 32.94626 35.56166 1805 ft 64 kts 40°
2026-05-01 12:00 32.95059 35.56672 1687 ft 64 kts 44°
2026-05-01 12:00 32.95585 35.57273 1541 ft 46 kts 32°
2026-05-01 12:01 32.95766 35.57403 1499 ft 44 kts 32°
2026-05-01 12:01 32.96001 35.57651 1459 ft 46 kts 49°
2026-05-01 12:01 32.96207 35.57952 1441 ft 46 kts 50°
2026-05-01 12:01 32.96440 35.58210 1398 ft 47 kts 24°
2026-05-01 12:02 32.96739 35.58156 1323 ft 48 kts 323°
2026-05-01 12:02 32.97044 35.57911 1181 ft 55 kts 324°
2026-05-01 12:02 32.97368 35.57687 1036 ft 54 kts 328°
2026-05-01 12:02 32.97677 35.57475 951 ft 49 kts 326°
2026-05-01 12:03 32.97947 35.57290 895 ft 23 kts 331°
2026-05-01 12:03 32.97952 35.57293 895 ft 10 kts 144°
2026-05-01 12:03 32.97923 35.57312 895 ft 8 kts 142°
2026-05-01 12:03 32.97858 35.57354 895 ft 1 kts 162°
2026-05-01 12:04 32.97853 35.57357 895 ft 2 kts 149°
2026-05-01 12:04 32.97782 35.57369 895 ft 9 kts 173°
2026-05-01 12:04 32.97732 35.57336 901 ft 6 kts 191°
2026-05-01 12:04 32.97726 35.57335 902 ft 0 kts 236°
2026-05-01 12:05 32.97723 35.57333 902 ft 2 kts 69°
2026-05-01 12:05 32.97724 35.57334 902 ft 0 kts 59°